Time;durP1;ratioP1;P1;durP2;ratioP2;P2;SDS_P1;SDS_P2;PMS_P1;PMS_P2;Temp;Humidity;BMP_temperature;BMP_pressure;BME280_temperature;BME280_humidity;BME280_pressure;Samples;Min_cycle;Max_cycle;Signal;HPM_P1;HPM_P2
2021/11/05 00:00:58;;;;;;;1.52;1.42;;;7.00;99.90;;;;;;1820389;78;21273;-83
2021/11/05 00:03:24;;;;;;;1.90;1.80;;;6.90;99.90;;;;;;1820804;77;21098;-85
2021/11/05 00:05:50;;;;;;;3.00;1.82;;;7.00;99.90;;;;;;1820400;77;21106;-84
2021/11/05 00:08:16;;;;;;;2.42;1.90;;;7.00;99.90;;;;;;1821771;77;21164;-84
2021/11/05 00:10:42;;;;;;;2.08;1.60;;;7.00;99.90;;;;;;1873517;75;21140;-85
2021/11/05 00:13:08;;;;;;;2.15;1.47;;;7.00;99.90;;;;;;1878020;75;21187;-85
2021/11/05 00:15:34;;;;;;;2.55;2.35;;;7.00;99.90;;;;;;1863523;75;21151;-85
2021/11/05 00:18:00;;;;;;;2.90;1.92;;;7.00;99.90;;;;;;1881283;75;21164;-84
2021/11/05 00:20:27;;;;;;;2.72;1.70;;;7.00;99.90;;;;;;1870461;75;21085;-84
2021/11/05 00:22:55;;;;;;;2.35;1.90;;;7.00;99.90;;;;;;1863310;74;21155;-84
2021/11/05 00:25:23;;;;;;;3.90;1.90;;;7.00;99.90;;;;;;1863653;74;21102;-83
2021/11/05 00:27:49;;;;;;;2.58;2.08;;;7.00;99.90;;;;;;1872558;75;21047;-85
2021/11/05 00:30:16;;;;;;;1.75;1.65;;;7.00;99.90;;;;;;1870335;75;21141;-83
2021/11/05 00:32:42;;;;;;;2.20;2.00;;;7.00;99.90;;;;;;1878007;74;21086;-83
2021/11/05 00:35:08;;;;;;;1.80;1.70;;;7.10;99.90;;;;;;1875264;74;21329;-83
2021/11/05 00:37:34;;;;;;;4.33;2.20;;;7.00;99.90;;;;;;1875403;74;21205;-83
2021/11/05 00:40:00;;;;;;;2.98;1.85;;;7.00;99.90;;;;;;1863875;74;21052;-82
2021/11/05 00:42:26;;;;;;;2.10;1.90;;;7.00;99.90;;;;;;1870291;74;21171;-83
2021/11/05 00:44:52;;;;;;;2.10;1.90;;;7.00;99.90;;;;;;1863797;74;21085;-83
2021/11/05 00:47:18;;;;;;;4.08;2.10;;;7.00;99.90;;;;;;1870526;74;21147;-82
2021/11/05 00:49:45;;;;;;;2.15;1.80;;;7.20;99.90;;;;;;1873319;76;21255;-83
2021/11/05 00:52:11;;;;;;;3.10;2.05;;;7.20;99.90;;;;;;1873229;75;21276;-84
2021/11/05 00:54:37;;;;;;;3.45;2.25;;;7.10;99.90;;;;;;1885432;75;21091;-84
2021/11/05 00:57:03;;;;;;;2.42;1.72;;;7.00;99.90;;;;;;1889349;75;21152;-84
2021/11/05 00:59:31;;;;;;;2.95;2.20;;;7.00;99.90;;;;;;1866760;75;21089;-84
2021/11/05 01:01:58;;;;;;;4.47;2.00;;;7.00;99.90;;;;;;1868708;74;21123;-84
2021/11/05 01:04:24;;;;;;;3.58;2.08;;;7.10;99.90;;;;;;1878945;76;21054;-85
2021/11/05 01:06:50;;;;;;;2.47;1.75;;;7.10;99.90;;;;;;1867561;75;21086;-85
2021/11/05 01:09:17;;;;;;;1.87;1.60;;;7.10;99.90;;;;;;1869597;74;21090;-84
2021/11/05 01:11:43;;;;;;;3.30;1.92;;;7.10;99.90;;;;;;1875945;74;21097;-84
2021/11/05 01:14:09;;;;;;;2.12;1.75;;;7.00;99.90;;;;;;1875539;75;21064;-84
2021/11/05 01:16:35;;;;;;;2.35;1.95;;;7.00;99.90;;;;;;1877577;75;21094;-85
2021/11/05 01:19:01;;;;;;;2.62;2.12;;;6.90;99.90;;;;;;1873458;76;21494;-84
2021/11/05 01:21:27;;;;;;;7.70;2.30;;;6.90;99.90;;;;;;1879971;75;21563;-84
2021/11/05 01:23:54;;;;;;;2.70;1.98;;;6.80;99.90;;;;;;1878115;75;21511;-84
2021/11/05 01:26:21;;;;;;;3.08;1.92;;;6.80;99.90;;;;;;1849419;76;21144;-84
2021/11/05 01:28:47;;;;;;;1.70;1.60;;;6.80;99.90;;;;;;1830793;77;21518;-84
2021/11/05 01:31:13;;;;;;;4.95;1.60;;;6.90;99.90;;;;;;1863071;74;21275;-84
2021/11/05 01:33:39;;;;;;;1.90;1.80;;;6.90;99.90;;;;;;1884448;75;21059;-85
2021/11/05 01:36:05;;;;;;;2.37;1.98;;;6.90;99.90;;;;;;1872498;75;21165;-84
2021/11/05 01:38:31;;;;;;;2.12;1.77;;;6.90;99.90;;;;;;1871206;75;21155;-84
2021/11/05 01:40:57;;;;;;;3.08;2.10;;;6.90;99.90;;;;;;1871421;74;21074;-84
2021/11/05 01:43:25;;;;;;;3.50;2.25;;;7.00;99.90;;;;;;1866961;75;21528;-84
2021/11/05 01:45:52;;;;;;;4.78;2.42;;;6.90;99.90;;;;;;1867797;75;21089;-84
2021/11/05 01:48:18;;;;;;;3.55;1.90;;;6.90;99.90;;;;;;1862632;74;21146;-85
2021/11/05 01:50:44;;;;;;;2.52;1.98;;;6.90;99.90;;;;;;1866319;76;21087;-84
2021/11/05 01:53:10;;;;;;;2.27;2.08;;;6.80;99.90;;;;;;1881180;75;21106;-85
2021/11/05 01:55:38;;;;;;;2.15;1.75;;;6.80;99.90;;;;;;1863575;74;21083;-85
2021/11/05 01:58:04;;;;;;;2.25;2.05;;;6.80;99.90;;;;;;1867773;74;21169;-84
2021/11/05 02:00:30;;;;;;;4.55;2.33;;;6.90;99.90;;;;;;1871387;75;21059;-84
2021/11/05 02:02:56;;;;;;;2.27;2.08;;;6.90;99.90;;;;;;1885035;75;21439;-86
2021/11/05 02:05:22;;;;;;;4.05;2.12;;;6.90;99.90;;;;;;1867341;74;21157;-86
2021/11/05 02:07:50;;;;;;;2.00;1.80;;;6.80;99.90;;;;;;1874295;74;21144;-85
2021/11/05 02:10:16;;;;;;;4.90;1.90;;;6.90;99.90;;;;;;1880932;75;21478;-85
2021/11/05 02:12:42;;;;;;;2.33;2.12;;;6.80;99.90;;;;;;1869638;74;21600;-85
2021/11/05 02:15:08;;;;;;;2.50;1.95;;;6.80;99.90;;;;;;1864753;74;21501;-85
2021/11/05 02:17:35;;;;;;;3.50;1.98;;;6.70;99.90;;;;;;1862545;74;21135;-85
2021/11/05 02:20:03;;;;;;;2.98;2.15;;;6.80;99.90;;;;;;1869771;74;21073;-84
2021/11/05 02:22:28;;;;;;;8.80;2.30;;;6.60;99.90;;;;;;1868813;75;21158;-85
2021/11/05 02:24:55;;;;;;;2.85;2.05;;;6.70;99.90;;;;;;1869906;74;21549;-86
2021/11/05 02:27:21;;;;;;;3.85;2.40;;;6.70;99.90;;;;;;1875745;74;21559;-85
2021/11/05 02:29:47;;;;;;;2.42;2.22;;;6.50;99.90;;;;;;1862815;75;21430;-86
2021/11/05 02:32:13;;;;;;;2.92;2.27;;;6.60;99.90;;;;;;1880805;75;21502;-87
2021/11/05 02:34:39;;;;;;;4.55;2.22;;;6.60;99.90;;;;;;1880212;74;21087;-86
2021/11/05 02:37:05;;;;;;;2.22;2.05;;;6.60;99.90;;;;;;1874365;75;21095;-87
2021/11/05 02:39:32;;;;;;;2.52;2.33;;;6.50;99.90;;;;;;1864621;74;21089;-84
2021/11/05 02:41:59;;;;;;;4.22;2.55;;;6.60;99.90;;;;;;1862732;74;21104;-84
2021/11/05 02:44:25;;;;;;;3.00;2.72;;;6.50;99.90;;;;;;1867838;74;21479;-87
2021/11/05 02:46:51;;;;;;;2.35;2.15;;;6.50;99.90;;;;;;1862545;75;21525;-87
2021/11/05 02:49:17;;;;;;;3.02;2.50;;;6.50;99.90;;;;;;1875021;75;21040;-85
2021/11/05 02:51:43;;;;;;;4.10;2.80;;;6.50;99.90;;;;;;1871739;75;21076;-87
2021/11/05 02:54:09;;;;;;;3.27;2.42;;;6.50;99.90;;;;;;1875858;75;21094;-86
2021/11/05 02:56:36;;;;;;;4.58;2.47;;;6.50;99.90;;;;;;1873148;75;21483;-85
2021/11/05 02:59:03;;;;;;;3.08;2.77;;;6.50;99.90;;;;;;1880864;75;21210;-86
2021/11/05 03:01:29;;;;;;;4.75;2.55;;;6.40;99.90;;;;;;1862759;74;21146;-86
2021/11/05 03:03:55;;;;;;;3.30;2.80;;;6.40;99.90;;;;;;1867356;74;21084;-84
2021/11/05 03:06:21;;;;;;;3.67;2.72;;;6.40;99.90;;;;;;1872201;74;21040;-84
2021/11/05 03:08:48;;;;;;;3.02;2.72;;;6.40;99.90;;;;;;1869285;74;21074;-85
2021/11/05 03:11:14;;;;;;;3.00;2.70;;;6.30;99.90;;;;;;1869231;74;21087;-83
2021/11/05 03:13:40;;;;;;;2.47;2.27;;;6.40;99.90;;;;;;1868364;75;21086;-85
2021/11/05 03:16:06;;;;;;;4.20;2.85;;;6.40;99.90;;;;;;1870548;74;21163;-85
2021/11/05 03:18:34;;;;;;;2.50;2.30;;;6.40;99.90;;;;;;1877717;74;21093;-85
2021/11/05 03:21:00;;;;;;;3.10;2.55;;;6.40;99.90;;;;;;1871944;75;21097;-85
2021/11/05 03:23:29;;;;;;;2.95;2.67;;;6.40;99.90;;;;;;1884246;75;21090;-85
2021/11/05 03:25:54;;;;;;;5.45;2.83;;;6.40;99.90;;;;;;1877053;75;21103;-85
2021/11/05 03:28:20;;;;;;;3.33;2.70;;;6.30;99.90;;;;;;1880951;75;21090;-84
2021/11/05 03:30:46;;;;;;;4.35;2.72;;;6.20;99.90;;;;;;1866571;74;21152;-85
2021/11/05 03:33:12;;;;;;;4.35;2.60;;;6.30;99.90;;;;;;1867489;74;21162;-84
2021/11/05 03:35:38;;;;;;;2.92;2.62;;;6.40;99.90;;;;;;1866599;74;21176;-84
2021/11/05 03:38:04;;;;;;;4.17;2.45;;;6.30;99.90;;;;;;1869423;75;21238;-84
2021/11/05 03:40:32;;;;;;;2.60;2.20;;;6.30;99.90;;;;;;1862531;74;21097;-85
2021/11/05 03:42:58;;;;;;;2.92;2.17;;;6.30;99.90;;;;;;1874017;74;21164;-85
2021/11/05 03:45:25;;;;;;;2.70;2.40;;;6.30;99.90;;;;;;1871772;74;21058;-84
2021/11/05 03:47:51;;;;;;;2.45;2.25;;;6.30;99.90;;;;;;1867354;74;21157;-85
2021/11/05 03:50:17;;;;;;;5.65;2.70;;;6.30;99.90;;;;;;1863003;74;21089;-84
2021/11/05 03:52:43;;;;;;;3.80;2.90;;;6.30;99.90;;;;;;1872495;75;21086;-85
2021/11/05 03:55:10;;;;;;;3.05;2.30;;;6.30;99.90;;;;;;1876377;75;21124;-84
2021/11/05 03:57:36;;;;;;;6.83;2.62;;;6.30;99.90;;;;;;1872730;74;21081;-84
2021/11/05 04:00:02;;;;;;;3.25;2.58;;;6.30;99.90;;;;;;1871291;74;21168;-85
2021/11/05 04:02:28;;;;;;;3.10;2.58;;;6.30;99.90;;;;;;1884604;75;21165;-85
2021/11/05 04:04:55;;;;;;;2.12;1.98;;;6.40;99.90;;;;;;1864966;74;21064;-85
2021/11/05 04:07:21;;;;;;;2.30;2.10;;;6.40;99.90;;;;;;1871732;74;21071;-83
2021/11/05 04:09:47;;;;;;;2.77;2.15;;;6.40;99.90;;;;;;1867232;74;21062;-85
2021/11/05 04:12:14;;;;;;;2.47;1.95;;;6.40;99.90;;;;;;1862684;74;21508;-85
2021/11/05 04:14:40;;;;;;;2.80;2.33;;;6.30;99.90;;;;;;1850108;76;21094;-84
2021/11/05 04:17:07;;;;;;;3.00;2.80;;;6.20;99.90;;;;;;1864505;74;21222;-84
2021/11/05 04:19:33;;;;;;;2.60;2.40;;;6.20;99.90;;;;;;1867255;74;21079;-84
2021/11/05 04:21:59;;;;;;;2.30;2.20;;;6.30;99.90;;;;;;1864727;74;21228;-86
2021/11/05 04:24:25;;;;;;;3.10;2.72;;;6.30;99.90;;;;;;1880702;75;21051;-84
2021/11/05 04:26:51;;;;;;;2.45;2.25;;;6.30;99.90;;;;;;1865199;74;21177;-84
2021/11/05 04:29:18;;;;;;;3.10;2.80;;;6.20;99.90;;;;;;1862985;74;21155;-84
2021/11/05 04:31:44;;;;;;;5.90;2.58;;;6.30;99.90;;;;;;1862685;74;21100;-85
2021/11/05 04:34:10;;;;;;;2.77;2.58;;;6.30;99.90;;;;;;1866030;74;21152;-85
2021/11/05 04:36:36;;;;;;;2.92;2.45;;;6.30;99.90;;;;;;1875195;74;21151;-85
2021/11/05 04:39:03;;;;;;;2.67;2.47;;;6.20;99.90;;;;;;1864745;74;21089;-84
2021/11/05 04:41:29;;;;;;;4.33;2.55;;;6.30;99.90;;;;;;1864475;75;21154;-84
2021/11/05 04:43:55;;;;;;;2.75;2.40;;;6.20;99.90;;;;;;1875770;74;21153;-85
2021/11/05 04:46:21;;;;;;;2.55;2.40;;;6.30;99.90;;;;;;1863866;74;21155;-85
2021/11/05 04:48:47;;;;;;;2.95;2.65;;;6.30;99.90;;;;;;1862889;74;21221;-85
2021/11/05 04:51:13;;;;;;;5.28;2.67;;;6.30;99.90;;;;;;1866575;74;21060;-85
2021/11/05 04:53:39;;;;;;;3.75;2.72;;;6.30;99.90;;;;;;1867800;75;21598;-85
2021/11/05 04:56:06;;;;;;;3.70;2.60;;;6.30;99.90;;;;;;1867883;75;21471;-85
2021/11/05 04:58:32;;;;;;;2.92;2.30;;;6.30;99.90;;;;;;1867269;75;21479;-84
2021/11/05 05:01:01;;;;;;;7.25;2.85;;;6.30;99.90;;;;;;1885009;75;21132;-85
2021/11/05 05:03:27;;;;;;;2.52;2.33;;;6.30;99.90;;;;;;1880844;75;21195;-84
2021/11/05 05:05:54;;;;;;;3.05;2.58;;;6.30;99.90;;;;;;1875194;74;21162;-84
2021/11/05 05:08:20;;;;;;;3.60;2.77;;;6.30;99.90;;;;;;1864982;75;21096;-85
2021/11/05 05:10:46;;;;;;;3.92;2.80;;;6.30;99.90;;;;;;1872284;74;21098;-84
2021/11/05 05:13:12;;;;;;;3.58;2.72;;;6.40;99.90;;;;;;1863389;75;21086;-83
2021/11/05 05:15:38;;;;;;;2.98;2.77;;;6.40;99.90;;;;;;1874846;75;21054;-85
2021/11/05 05:18:04;;;;;;;3.60;2.50;;;6.40;99.90;;;;;;1876446;74;21073;-84
2021/11/05 05:20:31;;;;;;;3.47;2.50;;;6.50;99.90;;;;;;1873089;74;21099;-84
2021/11/05 05:22:57;;;;;;;2.62;2.42;;;6.40;99.90;;;;;;1873626;75;21276;-85
2021/11/05 05:25:23;;;;;;;2.42;2.22;;;6.50;99.90;;;;;;1875222;75;21173;-85
2021/11/05 05:27:50;;;;;;;3.10;2.47;;;6.50;99.90;;;;;;1872349;74;21088;-85
2021/11/05 05:30:16;;;;;;;3.12;2.20;;;6.40;99.90;;;;;;1878706;74;21242;-85
2021/11/05 05:32:42;;;;;;;3.08;2.77;;;6.50;99.90;;;;;;1870968;74;21102;-84
2021/11/05 05:35:08;;;;;;;3.35;2.77;;;6.50;99.90;;;;;;1868211;74;21163;-85
2021/11/05 05:37:34;;;;;;;4.15;2.85;;;6.50;99.90;;;;;;1866004;74;21462;-87
2021/11/05 05:40:00;;;;;;;4.15;3.12;;;6.50;99.90;;;;;;1862461;74;21507;-88
2021/11/05 05:42:26;;;;;;;2.87;2.65;;;6.40;99.90;;;;;;1862741;74;21489;-87
2021/11/05 05:44:52;;;;;;;3.00;2.55;;;6.40;99.90;;;;;;1880471;74;21081;-88
2021/11/05 05:47:19;;;;;;;3.92;2.87;;;6.50;99.90;;;;;;1864942;74;21085;-90
2021/11/05 05:49:48;;;;;;;3.80;3.20;;;6.50;99.90;;;;;;1862975;75;21081;-89
2021/11/05 05:52:14;;;;;;;3.83;3.52;;;6.40;99.90;;;;;;1866018;74;21131;-89
2021/11/05 05:54:40;;;;;;;4.70;3.65;;;6.40;99.90;;;;;;1873301;74;21086;-89
2021/11/05 05:57:06;;;;;;;7.15;3.55;;;6.40;99.90;;;;;;1879704;74;21160;-89
2021/11/05 05:59:32;;;;;;;3.42;3.00;;;6.40;99.90;;;;;;1876864;74;21187;-88
2021/11/05 06:01:58;;;;;;;4.03;3.50;;;6.40;99.90;;;;;;1856942;74;21149;-89
2021/11/05 06:04:26;;;;;;;5.28;3.02;;;6.40;99.90;;;;;;1864421;74;21151;-87
2021/11/05 06:06:52;;;;;;;3.45;2.98;;;6.40;99.90;;;;;;1869558;74;21075;-87
2021/11/05 06:09:18;;;;;;;4.03;3.27;;;6.40;99.90;;;;;;1869962;74;21087;-88
2021/11/05 06:11:44;;;;;;;3.33;3.02;;;6.50;99.90;;;;;;1866537;75;21085;-85
2021/11/05 06:14:12;;;;;;;3.58;3.20;;;6.50;99.90;;;;;;1871525;75;21086;-81
2021/11/05 06:16:39;;;;;;;2.83;2.62;;;6.50;99.90;;;;;;1867759;74;21168;-82
2021/11/05 06:19:05;;;;;;;2.92;2.72;;;6.50;99.90;;;;;;1875793;75;21165;-78
2021/11/05 06:21:31;;;;;;;5.15;2.65;;;6.50;99.90;;;;;;1876675;75;21226;-78
2021/11/05 06:23:57;;;;;;;5.50;3.55;;;6.40;99.90;;;;;;1867473;74;21058;-81
2021/11/05 06:26:24;;;;;;;3.98;3.50;;;6.40;99.90;;;;;;1867406;74;21089;-80
2021/11/05 06:28:50;;;;;;;6.08;3.42;;;6.50;99.90;;;;;;1862527;75;21560;-80
2021/11/05 06:31:16;;;;;;;3.52;3.22;;;6.50;99.90;;;;;;1875984;75;21518;-84
2021/11/05 06:33:42;;;;;;;4.50;3.33;;;6.50;99.90;;;;;;1869194;74;21471;-87
2021/11/05 06:36:08;;;;;;;4.75;3.40;;;6.50;99.90;;;;;;1867713;75;21446;-76
2021/11/05 06:38:34;;;;;;;5.72;3.50;;;6.50;99.90;;;;;;1867117;74;21145;-75
2021/11/05 06:41:00;;;;;;;3.37;3.12;;;6.50;99.90;;;;;;1869887;74;21145;-75
2021/11/05 06:43:26;;;;;;;3.60;3.30;;;6.40;99.90;;;;;;1871953;74;21156;-76
2021/11/05 06:45:52;;;;;;;5.10;3.25;;;6.50;99.90;;;;;;1884613;75;21184;-74
2021/11/05 06:48:19;;;;;;;5.47;3.30;;;6.50;99.90;;;;;;1865572;74;21086;-74
2021/11/05 06:50:45;;;;;;;5.85;3.45;;;6.50;99.90;;;;;;1876275;75;21098;-76
2021/11/05 06:53:11;;;;;;;4.60;3.35;;;6.50;99.90;;;;;;1868053;74;21151;-76
2021/11/05 06:55:37;;;;;;;3.98;3.27;;;6.50;99.90;;;;;;1862419;74;21498;-75
2021/11/05 06:58:03;;;;;;;4.65;3.17;;;6.60;99.90;;;;;;1880449;74;21489;-77
2021/11/05 07:00:29;;;;;;;3.17;2.87;;;6.60;99.90;;;;;;1866865;74;21139;-76
2021/11/05 07:02:55;;;;;;;4.20;3.20;;;6.60;99.90;;;;;;1869942;74;21075;-75
2021/11/05 07:05:23;;;;;;;3.70;3.30;;;6.70;99.90;;;;;;1873288;75;21090;-76
2021/11/05 07:07:49;;;;;;;3.40;2.80;;;6.70;99.90;;;;;;1888759;75;21094;-77
2021/11/05 07:10:15;;;;;;;2.90;2.55;;;6.70;99.90;;;;;;1873347;76;21089;-74
2021/11/05 07:12:41;;;;;;;3.00;2.80;;;6.80;99.90;;;;;;1870039;75;21060;-74
2021/11/05 07:15:08;;;;;;;6.25;2.60;;;6.80;99.90;;;;;;1878306;75;21193;-81
2021/11/05 07:17:34;;;;;;;2.85;2.47;;;6.90;99.90;;;;;;1882339;75;21055;-74
2021/11/05 07:20:00;;;;;;;2.90;2.70;;;6.90;99.90;;;;;;1865742;74;21194;-73
2021/11/05 07:22:26;;;;;;;3.40;2.83;;;6.90;99.90;;;;;;1874074;74;21157;-74
2021/11/05 07:24:52;;;;;;;6.90;3.27;;;6.90;99.90;;;;;;1873904;74;21143;-74
2021/11/05 07:27:18;;;;;;;3.15;2.85;;;6.90;99.90;;;;;;1872291;75;21506;-75
2021/11/05 07:29:44;;;;;;;3.67;2.85;;;6.90;99.90;;;;;;1867370;75;21478;-74
2021/11/05 07:32:11;;;;;;;3.62;3.25;;;6.90;99.90;;;;;;1867351;75;21234;-74
2021/11/05 07:34:38;;;;;;;2.80;2.60;;;6.80;99.90;;;;;;1880237;75;21190;-75
2021/11/05 07:37:04;;;;;;;6.03;2.72;;;6.80;99.90;;;;;;1864598;74;21155;-78
2021/11/05 07:39:30;;;;;;;5.45;3.15;;;6.90;99.90;;;;;;1862884;74;21218;-74
2021/11/05 07:41:56;;;;;;;3.37;2.90;;;6.90;99.90;;;;;;1864869;74;21711;-73
2021/11/05 07:44:22;;;;;;;4.33;2.92;;;7.00;99.90;;;;;;1878069;74;21091;-77
2021/11/05 07:46:48;;;;;;;4.12;2.77;;;7.00;99.90;;;;;;1871775;74;21488;-74
2021/11/05 07:49:14;;;;;;;3.62;2.72;;;7.00;99.90;;;;;;1880570;75;21568;-75
2021/11/05 07:51:40;;;;;;;4.03;2.50;;;7.10;99.90;;;;;;1872094;74;21141;-75
2021/11/05 07:54:07;;;;;;;2.85;2.52;;;7.10;99.90;;;;;;1867595;75;21141;-75
2021/11/05 07:56:33;;;;;;;3.42;3.12;;;7.00;99.90;;;;;;1882224;75;21204;-74
2021/11/05 07:58:59;;;;;;;3.25;2.83;;;7.00;99.90;;;;;;1867702;75;21198;-75
2021/11/05 08:01:25;;;;;;;2.60;2.40;;;7.10;99.90;;;;;;1871040;74;21152;-76
2021/11/05 08:03:51;;;;;;;8.78;3.00;;;7.10;99.90;;;;;;1881025;75;21060;-73
2021/11/05 08:06:18;;;;;;;5.08;2.75;;;7.10;99.90;;;;;;1869683;74;21476;-76
2021/11/05 08:08:44;;;;;;;8.65;3.25;;;7.10;99.90;;;;;;1880514;75;21514;-76
2021/11/05 08:11:12;;;;;;;5.30;2.77;;;7.10;99.90;;;;;;1867202;74;21555;-75
2021/11/05 08:13:38;;;;;;;3.05;2.85;;;7.10;99.90;;;;;;1862639;75;21180;-76
2021/11/05 08:16:04;;;;;;;10.10;3.45;;;7.20;99.90;;;;;;1867090;74;21174;-75
2021/11/05 08:18:30;;;;;;;3.08;2.75;;;7.20;99.90;;;;;;1864750;74;21085;-75
2021/11/05 08:20:56;;;;;;;3.35;3.02;;;7.20;99.90;;;;;;1867806;74;21514;-75
2021/11/05 08:23:22;;;;;;;3.25;2.95;;;7.20;99.90;;;;;;1872018;74;21208;-74
2021/11/05 08:25:49;;;;;;;4.30;3.33;;;7.10;99.90;;;;;;1881049;75;21153;-75
2021/11/05 08:28:15;;;;;;;9.78;3.37;;;7.10;99.90;;;;;;1885137;75;21086;-74
2021/11/05 08:30:41;;;;;;;8.60;5.12;;;7.20;99.90;;;;;;1872014;75;21142;-78
2021/11/05 08:33:07;;;;;;;2.70;2.50;;;7.20;99.90;;;;;;1873479;74;21034;-76
2021/11/05 08:35:33;;;;;;;2.83;2.62;;;7.30;99.90;;;;;;1877212;74;21155;-75
2021/11/05 08:37:59;;;;;;;13.88;9.53;;;7.30;99.90;;;;;;1879155;74;21156;-74
2021/11/05 08:40:25;;;;;;;9.50;7.35;;;7.30;99.90;;;;;;1872703;74;21179;-74
2021/11/05 08:42:53;;;;;;;4.08;3.05;;;7.30;99.90;;;;;;1873406;75;21087;-74
2021/11/05 08:45:19;;;;;;;3.10;2.80;;;7.50;99.90;;;;;;1873677;74;21089;-75
2021/11/05 08:47:45;;;;;;;8.90;3.60;;;7.60;99.90;;;;;;1859483;74;21046;-74
2021/11/05 08:50:11;;;;;;;3.37;2.87;;;7.60;99.90;;;;;;1873616;75;21130;-75
2021/11/05 08:52:37;;;;;;;3.72;2.62;;;7.60;99.90;;;;;;1867624;74;21148;-75
2021/11/05 08:55:05;;;;;;;5.35;3.33;;;7.70;99.90;;;;;;1876456;75;21147;-75
2021/11/05 08:57:31;;;;;;;3.52;3.22;;;7.70;99.90;;;;;;1866035;74;21095;-75
2021/11/05 08:59:57;;;;;;;6.15;2.75;;;7.80;99.90;;;;;;1877706;74;21228;-77
2021/11/05 09:02:24;;;;;;;7.75;3.40;;;7.70;99.90;;;;;;1868498;74;21507;-85
2021/11/05 09:04:50;;;;;;;3.65;2.90;;;7.70;99.90;;;;;;1889449;75;21443;-83
2021/11/05 09:07:16;;;;;;;4.75;3.12;;;7.80;99.90;;;;;;1864479;74;21497;-77
2021/11/05 09:09:42;;;;;;;5.10;3.33;;;7.90;99.90;;;;;;1877244;75;21669;-79
2021/11/05 09:12:08;;;;;;;4.08;3.15;;;7.90;99.90;;;;;;1867796;74;21104;-81
2021/11/05 09:14:36;;;;;;;3.30;3.00;;;7.90;99.90;;;;;;1870479;74;21145;-77
2021/11/05 09:17:02;;;;;;;2.90;2.60;;;8.00;99.90;;;;;;1873340;74;21077;-76
2021/11/05 09:19:28;;;;;;;5.78;2.90;;;8.00;99.90;;;;;;1866155;74;21146;-74
2021/11/05 09:21:57;;;;;;;2.65;2.45;;;8.20;99.90;;;;;;1873808;75;21566;-75
2021/11/05 09:24:23;;;;;;;6.70;4.53;;;8.30;99.90;;;;;;1876278;75;21083;-75
2021/11/05 09:26:49;;;;;;;33.95;15.88;;;8.50;99.90;;;;;;1873394;74;21229;-76
2021/11/05 09:29:17;;;;;;;6.70;4.45;;;8.60;99.90;;;;;;1871490;74;21085;-76
2021/11/05 09:31:43;;;;;;;4.17;3.47;;;8.50;99.90;;;;;;1885064;75;21102;-75
2021/11/05 09:34:09;;;;;;;5.42;4.20;;;8.70;99.90;;;;;;1862966;74;21077;-76
2021/11/05 09:36:35;;;;;;;5.80;2.80;;;8.70;99.90;;;;;;1839817;75;21090;-75
2021/11/05 09:39:02;;;;;;;4.92;3.58;;;8.70;99.90;;;;;;1880594;75;21154;-76
2021/11/05 09:41:28;;;;;;;6.15;4.30;;;9.00;99.90;;;;;;1877026;75;21156;-76
2021/11/05 09:43:54;;;;;;;4.12;2.87;;;8.90;99.90;;;;;;1869535;74;21077;-76
2021/11/05 09:46:20;;;;;;;3.00;2.20;;;9.00;99.90;;;;;;1867958;74;21145;-76
2021/11/05 09:48:46;;;;;;;7.12;3.27;;;9.20;99.90;;;;;;1874950;75;21090;-77
2021/11/05 09:51:13;;;;;;;6.55;3.27;;;9.50;99.90;;;;;;1865716;74;21085;-77
2021/11/05 09:53:39;;;;;;;3.77;3.00;;;9.30;99.90;;;;;;1863494;75;21084;-78
2021/11/05 09:56:06;;;;;;;9.30;3.22;;;9.30;99.90;;;;;;1873274;75;21107;-77
2021/11/05 09:58:32;;;;;;;5.37;3.30;;;9.50;99.90;;;;;;1877010;74;21077;-77
2021/11/05 10:00:58;;;;;;;5.97;2.70;;;9.60;99.90;;;;;;1863759;74;21086;-77
2021/11/05 10:03:24;;;;;;;3.87;2.70;;;9.70;99.90;;;;;;1872435;74;21039;-76
2021/11/05 10:05:50;;;;;;;6.20;2.95;;;9.60;99.90;;;;;;1872777;74;21085;-77
2021/11/05 10:08:16;;;;;;;3.62;3.00;;;9.60;99.90;;;;;;1877039;75;21154;-78
2021/11/05 10:10:43;;;;;;;3.67;2.80;;;9.50;99.90;;;;;;1864989;76;21718;-77
2021/11/05 10:13:09;;;;;;;4.00;2.58;;;9.70;99.90;;;;;;1872732;74;21136;-78
2021/11/05 10:15:35;;;;;;;5.87;3.00;;;9.80;99.90;;;;;;1872927;75;21161;-78
2021/11/05 10:18:01;;;;;;;5.33;3.50;;;9.70;99.90;;;;;;1881868;75;21098;-78
2021/11/05 10:20:28;;;;;;;3.40;3.08;;;9.60;99.90;;;;;;1881182;75;21098;-76
2021/11/05 10:22:56;;;;;;;4.05;3.25;;;9.60;99.90;;;;;;1877304;75;21463;-77
2021/11/05 10:25:22;;;;;;;2.70;2.40;;;9.70;99.90;;;;;;1870489;74;21102;-78
2021/11/05 10:27:48;;;;;;;4.92;2.80;;;10.00;99.90;;;;;;1863384;74;21430;-77
2021/11/05 10:30:14;;;;;;;6.47;2.40;;;10.10;99.90;;;;;;1869402;74;21051;-77
2021/11/05 10:32:40;;;;;;;3.52;2.47;;;9.90;99.90;;;;;;1886736;75;21086;-77
2021/11/05 10:35:06;;;;;;;3.92;2.80;;;10.00;99.90;;;;;;1887345;75;21084;-74
2021/11/05 10:37:32;;;;;;;3.60;2.70;;;9.90;99.90;;;;;;1864691;74;21143;-76
2021/11/05 10:39:59;;;;;;;3.80;2.52;;;10.10;99.90;;;;;;1867555;74;21508;-75
2021/11/05 10:42:26;;;;;;;3.67;2.92;;;10.30;99.90;;;;;;1862773;74;21154;-76
2021/11/05 10:44:52;;;;;;;6.08;2.77;;;10.50;99.90;;;;;;1862751;74;21093;-76
2021/11/05 10:47:18;;;;;;;4.80;2.65;;;10.40;99.90;;;;;;1872805;74;21078;-78
2021/11/05 10:49:44;;;;;;;3.62;2.40;;;10.20;99.90;;;;;;1876206;74;21094;-75
2021/11/05 10:52:10;;;;;;;3.77;2.40;;;10.20;99.90;;;;;;1873290;76;21478;-76
2021/11/05 10:54:36;;;;;;;3.02;2.45;;;10.10;99.90;;;;;;1884011;75;21517;-79
2021/11/05 10:57:03;;;;;;;7.60;2.90;;;10.20;99.90;;;;;;1876815;74;21588;-75
2021/11/05 10:59:29;;;;;;;4.33;2.75;;;10.40;99.90;;;;;;1876013;74;21158;-75
2021/11/05 11:01:55;;;;;;;5.50;2.70;;;10.20;99.90;;;;;;1878756;75;21207;-76
2021/11/05 11:04:22;;;;;;;2.95;2.65;;;10.20;99.90;;;;;;1864797;74;21168;-77
2021/11/05 11:06:48;;;;;;;3.22;2.77;;;10.10;99.90;;;;;;1862570;74;21504;-77
2021/11/05 11:09:15;;;;;;;3.47;3.08;;;10.00;99.90;;;;;;1866833;75;21056;-77
2021/11/05 11:11:41;;;;;;;3.87;3.10;;;10.10;99.90;;;;;;1881321;75;21176;-76
2021/11/05 11:14:07;;;;;;;3.55;3.25;;;10.10;99.90;;;;;;1885248;75;21086;-76
2021/11/05 11:16:34;;;;;;;3.80;3.45;;;10.30;99.90;;;;;;1881103;75;21542;-76
2021/11/05 11:19:00;;;;;;;5.22;3.60;;;10.50;99.90;;;;;;1880916;75;21530;-77
2021/11/05 11:21:26;;;;;;;6.20;3.75;;;10.90;99.90;;;;;;1888930;75;21090;-78
2021/11/05 11:23:52;;;;;;;5.53;3.00;;;11.70;99.90;;;;;;1878361;75;21169;-77
2021/11/05 11:26:18;;;;;;;3.30;3.00;;;12.30;99.90;;;;;;1874381;74;21450;-78
2021/11/05 11:28:44;;;;;;;4.37;3.05;;;12.80;99.90;;;;;;1871752;74;21077;-76
2021/11/05 11:31:12;;;;;;;3.47;3.12;;;12.40;99.90;;;;;;1863323;74;21136;-76
2021/11/05 11:33:38;;;;;;;3.33;2.62;;;12.20;99.90;;;;;;1865228;74;21146;-75
2021/11/05 11:36:04;;;;;;;4.97;3.62;;;11.60;99.90;;;;;;1866244;74;21087;-75
2021/11/05 11:38:31;;;;;;;7.17;3.60;;;11.10;99.90;;;;;;1865543;75;21103;-74
2021/11/05 11:40:57;;;;;;;5.03;3.77;;;10.90;99.90;;;;;;1867298;74;21159;-75
2021/11/05 11:43:23;;;;;;;3.65;3.35;;;10.50;99.90;;;;;;1863022;74;21085;-75
2021/11/05 11:45:49;;;;;;;6.70;3.75;;;10.40;99.90;;;;;;1863305;74;21150;-75
2021/11/05 11:48:17;;;;;;;4.87;3.17;;;10.50;99.90;;;;;;1874328;74;21180;-75
2021/11/05 11:50:43;;;;;;;3.00;2.80;;;10.50;99.90;;;;;;1868493;75;21129;-75
2021/11/05 11:53:09;;;;;;;3.08;2.77;;;10.50;99.90;;;;;;1884912;75;21281;-75
2021/11/05 11:55:35;;;;;;;2.70;2.50;;;10.40;99.90;;;;;;1872699;75;23001;-76
2021/11/05 11:58:02;;;;;;;7.25;2.65;;;10.40;99.90;;;;;;1875347;74;21513;-75
2021/11/05 12:00:28;;;;;;;4.47;2.83;;;10.50;99.90;;;;;;1871696;75;21795;-75
2021/11/05 12:02:54;;;;;;;5.65;2.60;;;10.30;99.90;;;;;;1871733;75;21169;-76
2021/11/05 12:05:21;;;;;;;5.95;3.95;;;10.40;99.90;;;;;;1883110;75;21160;-75
2021/11/05 12:07:47;;;;;;;4.80;2.80;;;10.50;99.90;;;;;;1865594;75;21135;-75
2021/11/05 12:10:15;;;;;;;6.95;2.95;;;10.60;99.90;;;;;;1865096;74;21064;-75
2021/11/05 12:12:41;;;;;;;11.35;3.55;;;10.60;99.90;;;;;;1863157;74;21189;-75
2021/11/05 12:15:09;;;;;;;5.60;3.00;;;10.50;99.90;;;;;;1867441;74;21086;-75
2021/11/05 12:17:35;;;;;;;3.67;3.25;;;10.50;99.90;;;;;;1872698;75;21112;-75
2021/11/05 12:20:01;;;;;;;3.22;2.92;;;10.40;99.90;;;;;;1889085;75;21163;-76
2021/11/05 12:22:27;;;;;;;4.55;2.70;;;10.40;99.90;;;;;;1876663;74;21170;-75
2021/11/05 12:24:54;;;;;;;2.98;2.67;;;10.50;99.90;;;;;;1865017;74;21190;-74
2021/11/05 12:27:31;;;;;;;4.08;3.00;;;10.80;99.90;;;;;;1867975;74;21218;-77
2021/11/05 12:29:49;;;;;;;4.08;2.50;;;11.00;99.90;;;;;;1880899;75;21098;-75
2021/11/05 12:32:20;;;;;;;3.12;2.80;;;10.90;99.90;;;;;;1879310;74;21085;-75
2021/11/05 12:34:48;;;;;;;3.42;2.80;;;11.00;99.90;;;;;;1864974;74;21508;-77
2021/11/05 12:37:14;;;;;;;3.80;2.83;;;11.40;99.90;;;;;;1880951;75;21163;-74
2021/11/05 12:39:40;;;;;;;3.17;2.95;;;11.70;99.90;;;;;;1875301;74;21172;-75
2021/11/05 12:42:06;;;;;;;3.55;2.50;;;11.80;99.90;;;;;;1889347;75;21051;-75
2021/11/05 12:44:32;;;;;;;3.95;2.98;;;11.60;99.90;;;;;;1871397;75;21163;-75
2021/11/05 12:46:59;;;;;;;2.80;2.60;;;11.60;99.90;;;;;;1876336;76;21092;-75
2021/11/05 12:49:25;;;;;;;3.45;2.75;;;11.80;99.90;;;;;;1872401;75;21289;-74